Aviation Digital Data Service (ADDS)

Output produced by TAFs form (1800 UTC 29 August 2016)
found at http://aviationweather.gov/adds/tafs/
 
KMTJ 291726Z 2918/3018 25006KT P6SM SCT100 
     FM292000 29008KT P6SM BKN100 
     FM292300 16008KT P6SM BKN100 
     FM300100 12008KT P6SM BKN100 
     FM300300 13010KT P6SM SCT100 
     FM301500 VRB03KT P6SM FEW100